Time;durP1;ratioP1;P1;durP2;ratioP2;P2;SDS_P1;SDS_P2;PMS_P1;PMS_P2;Temp;Humidity;BMP_temperature;BMP_pressure;BME280_temperature;BME280_humidity;BME280_pressure;Samples;Min_cycle;Max_cycle;Signal;HPM_P1;HPM_P2
2022/09/15 00:03:25;;;;;;;1.57;0.50;;;;;;;;;;21150365;28;20220;-73
2022/09/15 00:13:27;;;;;;;1.57;0.60;;;;;;;;;;21150877;28;20584;-74
2022/09/15 00:23:28;;;;;;;0.87;0.50;;;;;;;;;;21116114;28;20223;-74
2022/09/15 00:33:30;;;;;;;0.67;0.40;;;;;;;;;;21131685;28;20233;-74
2022/09/15 00:43:47;;;;;;;1.00;0.40;;;19.80;99.90;;;;;;21150399;28;20761;-74
2022/09/15 00:53:50;;;;;;;0.40;0.37;;;19.70;99.90;;;;;;21157239;28;20205;-74
2022/09/15 01:03:52;;;;;;;0.83;0.50;;;;;;;;;;21165462;28;20707;-74
2022/09/15 01:13:54;;;;;;;0.77;0.47;;;;;;;;;;21145527;28;20203;-74
2022/09/15 01:24:14;;;;;;;0.80;0.50;;;19.60;99.90;;;;;;21163583;28;20222;-74
2022/09/15 01:34:18;;;;;;;0.60;0.40;;;19.70;99.90;;;;;;21145349;28;20241;-74
2022/09/15 01:44:28;;;;;;;1.83;0.60;;;19.60;99.90;;;;;;21144476;28;20633;-74
2022/09/15 01:54:33;;;;;;;0.67;0.40;;;19.60;99.90;;;;;;21161556;28;20675;-74
2022/09/15 02:04:45;;;;;;;0.53;0.30;;;;;;;;;;21151280;27;20232;-74
2022/09/15 02:14:56;;;;;;;0.30;0.30;;;19.60;99.90;;;;;;21156850;27;20276;-74
2022/09/15 02:25:04;;;;;;;0.30;0.30;;;;;;;;;;21158530;22;20226;-73
2022/09/15 02:35:07;;;;;;;1.00;0.47;;;;;;;;;;21124858;28;20342;-73
2022/09/15 02:45:09;;;;;;;0.67;0.50;;;;;;;;;;21122932;28;20220;-76
2022/09/15 02:55:11;;;;;;;0.93;0.50;;;;;;;;;;21124617;28;20253;-75
2022/09/15 03:05:14;;;;;;;0.80;0.50;;;;;;;;;;21135627;28;20232;-75
2022/09/15 03:15:17;;;;;;;0.90;0.60;;;;;;;;;;21105022;28;20587;-76
2022/09/15 03:25:19;;;;;;;0.80;0.50;;;;;;;;;;21138319;28;20222;-76
2022/09/15 03:35:21;;;;;;;0.77;0.60;;;;;;;;;;21121939;28;20277;-76
2022/09/15 03:45:23;;;;;;;0.80;0.70;;;;;;;;;;21105433;28;20564;-75
2022/09/15 03:55:24;;;;;;;1.17;0.90;;;;;;;;;;21107573;28;20211;-75
2022/09/15 04:05:26;;;;;;;2.30;0.70;;;;;;;;;;21114271;28;20283;-74
2022/09/15 04:15:29;;;;;;;1.27;0.80;;;;;;;;;;21136260;28;20632;-74
2022/09/15 04:25:31;;;;;;;1.10;0.70;;;;;;;;;;21121534;28;20768;-75
2022/09/15 04:35:32;;;;;;;1.00;0.70;;;;;;;;;;21152444;28;20264;-75
2022/09/15 04:45:34;;;;;;;1.10;0.60;;;;;;;;;;21135022;28;20280;-76
2022/09/15 04:55:36;;;;;;;1.40;1.00;;;;;;;;;;21133991;28;20248;-76
2022/09/15 05:05:38;;;;;;;0.77;0.63;;;19.70;99.90;;;;;;21132922;28;20222;-76
2022/09/15 05:15:41;;;;;;;0.50;0.30;;;;;;;;;;21148476;28;20284;-76
2022/09/15 05:25:43;;;;;;;0.57;0.40;;;;;;;;;;21141806;28;20569;-77
2022/09/15 05:35:51;;;;;;;1.00;0.50;;;;;;;;;;21095786;28;20276;-75
2022/09/15 05:45:54;;;;;;;0.80;0.70;;;18.30;99.90;;;;;;21161417;28;20265;-75
2022/09/15 05:55:56;;;;;;;1.37;0.90;;;;;;;;;;21129735;28;20215;-76
2022/09/15 06:05:59;;;;;;;2.00;1.17;;;;;;;;;;21122441;28;20276;-75
2022/09/15 06:16:02;;;;;;;3.30;2.17;;;18.20;99.90;;;;;;21119632;27;20222;-75
2022/09/15 06:26:05;;;;;;;3.30;2.30;;;;;;;;;;21127409;28;20231;-75
2022/09/15 06:36:07;;;;;;;2.97;2.20;;;;;;;;;;21126119;28;20211;-75
2022/09/15 06:46:12;;;;;;;3.40;2.33;;;17.50;99.90;;;;;;21142335;28;20594;-75
2022/09/15 06:56:19;;;;;;;2.83;1.83;;;17.60;99.90;;;;;;21124248;28;20213;-75
2022/09/15 07:06:21;;;;;;;3.30;1.60;;;17.50;99.90;;;;;;21123619;28;20212;-75
2022/09/15 07:16:27;;;;;;;2.47;1.60;;;17.30;99.90;;;;;;21130485;28;20811;-75
2022/09/15 07:26:29;;;;;;;2.57;1.90;;;;;;;;;;21122178;28;20220;-75
2022/09/15 07:36:31;;;;;;;3.03;1.93;;;;;;;;;;21156263;28;20213;-76
2022/09/15 07:46:33;;;;;;;4.40;2.57;;;;;;;;;;21111827;28;20226;-75
2022/09/15 07:56:35;;;;;;;3.67;2.33;;;;;;;;;;21114260;28;20240;-75
2022/09/15 08:06:37;;;;;;;4.00;2.37;;;;;;;;;;21128808;28;20222;-75
2022/09/15 08:16:39;;;;;;;4.00;2.13;;;;;;;;;;21134851;28;20274;-75
2022/09/15 08:26:41;;;;;;;3.37;2.47;;;;;;;;;;21197642;22;20272;-74
2022/09/15 08:36:43;;;;;;;4.40;2.50;;;;;;;;;;21237218;27;20206;-74
2022/09/15 08:47:07;;;;;;;4.40;2.00;;;18.30;99.90;;;;;;21200803;27;20209;-74
2022/09/15 08:57:13;;;;;;;3.13;1.87;;;;;;;;;;21214838;27;20680;-73
2022/09/15 09:07:54;;;;;;;2.37;1.60;;;18.50;99.90;;;;;;21212089;27;20273;-74
2022/09/15 09:18:06;;;;;;;2.50;1.37;;;;;;;;;;21211193;27;20203;-73
2022/09/15 09:28:31;;;;;;;2.00;1.10;;;;;;;;;;21234117;27;20319;-74
2022/09/15 09:38:37;;;;;;;1.20;0.63;;;;;;;;;;21218295;27;20275;-74
2022/09/15 09:49:11;;;;;;;1.93;0.87;;;18.50;99.90;;;;;;21226747;27;20295;-73
2022/09/15 09:59:30;;;;;;;1.10;0.67;;;;;;;;;;21212874;27;20216;-73
2022/09/15 10:09:32;;;;;;;0.77;0.50;;;;;;;;;;21206539;27;20272;-72
2022/09/15 10:19:41;;;;;;;1.13;0.57;;;18.50;99.90;;;;;;21233880;27;20215;-73
2022/09/15 10:29:43;;;;;;;0.90;0.60;;;;;;;;;;21240547;27;20220;-73
2022/09/15 10:39:47;;;;;;;1.73;0.80;;;;;;;;;;21219345;27;20262;-73
2022/09/15 10:49:55;;;;;;;2.67;1.27;;;;;;;;;;21237244;27;20588;-73
2022/09/15 11:00:02;;;;;;;1.53;1.10;;;19.00;99.90;;;;;;21219438;27;20712;-73
2022/09/15 11:10:04;;;;;;;3.10;1.57;;;;;;;;;;21210838;27;20214;-73
2022/09/15 11:20:29;;;;;;;2.53;1.50;;;;;;;;;;21226319;27;20294;-76
2022/09/15 11:31:00;;;;;;;2.30;1.50;;;;;;;;;;21193155;27;20564;-75
2022/09/15 11:41:21;;;;;;;2.13;1.10;;;;;;;;;;21192000;27;20249;-75
2022/09/15 11:51:24;;;;;;;1.13;0.80;;;;;;;;;;21233985;27;20215;-75
2022/09/15 12:01:29;;;;;;;2.60;1.20;;;;;;;;;;21236366;27;20259;-75
2022/09/15 12:11:32;;;;;;;2.47;1.50;;;;;;;;;;21197636;27;20222;-75
2022/09/15 12:21:34;;;;;;;2.30;1.50;;;;;;;;;;21235217;27;20246;-75
2022/09/15 12:31:39;;;;;;;1.63;1.20;;;20.60;99.90;;;;;;21235697;27;20209;-76
2022/09/15 12:41:49;;;;;;;1.73;1.10;;;21.50;99.90;;;;;;21212657;27;20237;-76
2022/09/15 12:51:51;;;;;;;1.73;1.10;;;21.30;99.90;;;;;;21234978;27;20281;-76
2022/09/15 13:01:54;;;;;;;1.35;1.00;;;20.80;99.90;;;;;;21250890;27;20210;-76
2022/09/15 13:11:56;;;;;;;2.83;1.30;;;;;;;;;;21230760;27;20271;-75
2022/09/15 13:22:12;;;;;;;2.87;1.07;;;;;;;;;;21230297;27;20237;-76
2022/09/15 13:32:26;;;;;;;1.97;0.97;;;20.60;99.90;;;;;;21248318;27;20295;-75
2022/09/15 13:42:34;;;;;;;2.13;1.00;;;;;;;;;;21244624;27;20208;-75
2022/09/15 13:52:55;;;;;;;1.43;0.90;;;20.90;99.90;;;;;;21228507;27;20246;-75
2022/09/15 14:03:01;;;;;;;1.83;0.83;;;;;;;;;;21248219;27;20280;-75
2022/09/15 14:13:03;;;;;;;1.67;0.90;;;;;;;;;;21222639;27;20221;-75
2022/09/15 14:23:14;;;;;;;1.10;0.80;;;;;;;;;;21235344;27;20293;-75
2022/09/15 14:33:17;;;;;;;0.97;0.63;;;;;;;;;;21223778;27;20278;-75
2022/09/15 14:43:34;;;;;;;1.53;0.60;;;;;;;;;;21213026;27;20221;-75
2022/09/15 14:53:38;;;;;;;1.07;0.80;;;;;;;;;;21158350;22;20625;-74
2022/09/15 15:04:01;;;;;;;1.10;0.73;;;;;;;;;;21006879;28;20209;-75
2022/09/15 15:14:05;;;;;;;1.47;0.90;;;;;;;;;;20996763;28;20687;-74
2022/09/15 15:24:18;;;;;;;1.73;0.70;;;20.60;99.90;;;;;;20988867;28;20271;-74
2022/09/15 15:34:24;;;;;;;1.13;0.77;;;;;;;;;;20998376;28;20210;-75
2022/09/15 15:44:27;;;;;;;1.03;0.60;;;20.50;99.90;;;;;;21004488;28;20227;-74
2022/09/15 15:54:32;;;;;;;1.17;0.67;;;;;;;;;;21012068;28;20248;-73
2022/09/15 16:04:34;;;;;;;0.90;0.60;;;;;;;;;;21030623;28;20222;-74
2022/09/15 16:14:36;;;;;;;2.10;0.70;;;;;;;;;;21001817;28;20657;-74
2022/09/15 16:24:38;;;;;;;1.03;0.70;;;;;;;;;;20993271;28;20218;-74
2022/09/15 16:34:40;;;;;;;1.33;0.60;;;;;;;;;;20993406;28;20226;-74
2022/09/15 16:44:43;;;;;;;0.83;0.60;;;;;;;;;;20995307;28;20218;-74
2022/09/15 16:54:45;;;;;;;0.90;0.50;;;;;;;;;;20972695;28;20217;-75
2022/09/15 17:04:46;;;;;;;1.23;0.63;;;;;;;;;;21008407;28;20259;-75
2022/09/15 17:14:48;;;;;;;1.70;0.60;;;;;;;;;;21015066;28;20218;-76
2022/09/15 17:24:50;;;;;;;1.63;0.70;;;;;;;;;;21009003;28;20222;-76
2022/09/15 17:34:52;;;;;;;1.20;0.80;;;;;;;;;;20991643;28;20579;-76
2022/09/15 17:44:54;;;;;;;0.83;0.70;;;;;;;;;;21007056;28;20264;-75
2022/09/15 17:54:56;;;;;;;2.43;1.20;;;;;;;;;;20988349;28;20299;-76
2022/09/15 18:04:59;;;;;;;2.53;1.23;;;;;;;;;;20962651;28;20591;-75
2022/09/15 18:15:02;;;;;;;3.07;0.90;;;;;;;;;;20989544;28;20240;-75
2022/09/15 18:25:03;;;;;;;1.40;1.00;;;;;;;;;;20966871;28;20844;-76
2022/09/15 18:35:07;;;;;;;1.10;0.80;;;;;;;;;;20993342;28;20228;-73
2022/09/15 18:45:15;;;;;;;2.77;1.00;;;;;;;;;;20983369;28;20548;-74
2022/09/15 18:55:19;;;;;;;1.30;0.80;;;;;;;;;;20976031;28;20224;-76
2022/09/15 19:05:21;;;;;;;2.00;1.03;;;;;;;;;;20889077;28;20282;-73
2022/09/15 19:15:23;;;;;;;1.90;1.00;;;;;;;;;;20900396;28;20216;-76
2022/09/15 19:25:24;;;;;;;1.80;1.03;;;;;;;;;;20896906;28;20229;-76
2022/09/15 19:35:26;;;;;;;1.77;0.97;;;;;;;;;;20887676;28;20220;-77
2022/09/15 19:45:28;;;;;;;2.17;1.03;;;;;;;;;;20989938;28;20297;-77
2022/09/15 19:55:33;;;;;;;2.07;1.33;;;;;;;;;;20965719;28;20403;-76
2022/09/15 20:05:35;;;;;;;2.90;1.20;;;;;;;;;;20978637;28;20236;-77
2022/09/15 20:15:36;;;;;;;1.23;0.90;;;;;;;;;;20985011;28;20265;-77
2022/09/15 20:25:40;;;;;;;1.10;1.00;;;;;;;;;;20979260;28;20254;-76
2022/09/15 20:35:42;;;;;;;2.70;1.03;;;;;;;;;;20979657;28;20238;-75
2022/09/15 20:45:53;;;;;;;2.00;0.80;;;18.60;99.90;;;;;;21003696;28;20235;-76
2022/09/15 20:55:56;;;;;;;1.10;0.90;;;;;;;;;;21014345;22;20763;-76
2022/09/15 21:06:02;;;;;;;1.10;0.80;;;18.80;99.90;;;;;;21043359;28;20222;-76
2022/09/15 21:16:06;;;;;;;1.33;0.90;;;;;;;;;;21064925;28;20620;-76
2022/09/15 21:26:13;;;;;;;1.70;0.93;;;18.60;99.90;;;;;;21047425;28;20591;-77
2022/09/15 21:36:20;;;;;;;2.50;0.70;;;18.50;99.90;;;;;;21066401;28;20683;-76
2022/09/15 21:46:24;;;;;;;2.10;0.70;;;;;;;;;;21062078;28;20306;-76
2022/09/15 21:56:28;;;;;;;1.33;0.70;;;18.50;99.90;;;;;;21044586;28;20269;-76
2022/09/15 22:06:32;;;;;;;1.67;0.63;;;18.40;99.90;;;;;;21044739;28;20234;-76
2022/09/15 22:16:36;;;;;;;1.70;0.83;;;18.30;99.90;;;;;;21043928;28;20208;-75
2022/09/15 22:26:39;;;;;;;0.90;0.60;;;;;;;;;;21059556;28;20228;-75
2022/09/15 22:36:41;;;;;;;3.47;0.77;;;;;;;;;;21042012;28;20271;-75
2022/09/15 22:46:43;;;;;;;0.90;0.60;;;;;;;;;;21040997;28;20291;-75
2022/09/15 22:56:46;;;;;;;2.27;0.70;;;;;;;;;;21056740;28;20715;-75
2022/09/15 23:06:50;;;;;;;0.60;0.47;;;;;;;;;;21039274;28;20221;-75
2022/09/15 23:16:52;;;;;;;1.10;0.60;;;;;;;;;;21045173;28;20282;-76
2022/09/15 23:26:54;;;;;;;1.00;0.60;;;;;;;;;;21092761;28;20234;-76
2022/09/15 23:36:56;;;;;;;2.27;0.80;;;;;;;;;;21049707;28;20238;-75
2022/09/15 23:46:58;;;;;;;1.00;0.73;;;;;;;;;;21053069;28;20240;-76
2022/09/15 23:57:00;;;;;;;0.70;0.50;;;;;;;;;;21035049;28;20228;-75
